sensor_id;sensor_type;location;lat;lon;timestamp;temperature;humidity
68813;DHT22;55808;48.112;11.552;2023-03-04T00:00:31;1.30;99.90
68813;DHT22;55808;48.112;11.552;2023-03-04T00:02:57;1.30;99.90
68813;DHT22;55808;48.112;11.552;2023-03-04T00:05:22;1.20;99.90
68813;DHT22;55808;48.112;11.552;2023-03-04T00:07:48;3.20;99.90
68813;DHT22;55808;48.112;11.552;2023-03-04T00:10:13;1.20;99.90
68813;DHT22;55808;48.112;11.552;2023-03-04T00:12:39;1.20;99.90
68813;DHT22;55808;48.112;11.552;2023-03-04T00:15:04;1.20;99.90
68813;DHT22;55808;48.112;11.552;2023-03-04T00:17:30;1.20;99.90
68813;DHT22;55808;48.112;11.552;2023-03-04T00:19:56;1.10;99.90
68813;DHT22;55808;48.112;11.552;2023-03-04T00:22:22;1.10;99.90
68813;DHT22;55808;48.112;11.552;2023-03-04T00:24:47;1.00;99.90
68813;DHT22;55808;48.112;11.552;2023-03-04T00:27:13;1.10;99.90
68813;DHT22;55808;48.112;11.552;2023-03-04T00:29:38;1.10;99.90
68813;DHT22;55808;48.112;11.552;2023-03-04T00:32:04;1.10;99.90
68813;DHT22;55808;48.112;11.552;2023-03-04T00:34:29;1.00;99.90
68813;DHT22;55808;48.112;11.552;2023-03-04T00:36:55;1.00;99.90
68813;DHT22;55808;48.112;11.552;2023-03-04T00:39:26;1.00;99.90
68813;DHT22;55808;48.112;11.552;2023-03-04T00:41:52;0.90;99.90
68813;DHT22;55808;48.112;11.552;2023-03-04T00:44:17;0.90;99.90
68813;DHT22;55808;48.112;11.552;2023-03-04T00:46:43;0.90;99.90
68813;DHT22;55808;48.112;11.552;2023-03-04T00:49:09;1.00;99.90
68813;DHT22;55808;48.112;11.552;2023-03-04T00:51:34;0.90;99.90
68813;DHT22;55808;48.112;11.552;2023-03-04T00:54:00;1.00;99.90
68813;DHT22;55808;48.112;11.552;2023-03-04T00:56:25;0.90;99.90
68813;DHT22;55808;48.112;11.552;2023-03-04T00:58:51;0.90;99.90
68813;DHT22;55808;48.112;11.552;2023-03-04T01:01:16;0.90;99.90
68813;DHT22;55808;48.112;11.552;2023-03-04T01:03:42;0.90;99.90
68813;DHT22;55808;48.112;11.552;2023-03-04T01:06:07;0.90;99.90
68813;DHT22;55808;48.112;11.552;2023-03-04T01:08:33;0.90;99.90
68813;DHT22;55808;48.112;11.552;2023-03-04T01:10:58;0.90;99.90
68813;DHT22;55808;48.112;11.552;2023-03-04T01:13:24;0.80;99.90
68813;DHT22;55808;48.112;11.552;2023-03-04T01:15:49;0.70;99.90
68813;DHT22;55808;48.112;11.552;2023-03-04T01:18:15;0.80;99.90
68813;DHT22;55808;48.112;11.552;2023-03-04T01:20:40;0.80;99.90
68813;DHT22;55808;48.112;11.552;2023-03-04T01:23:06;0.80;99.90
68813;DHT22;55808;48.112;11.552;2023-03-04T01:25:31;0.70;99.90
68813;DHT22;55808;48.112;11.552;2023-03-04T01:27:57;0.70;99.90
68813;DHT22;55808;48.112;11.552;2023-03-04T01:30:22;0.70;99.90
68813;DHT22;55808;48.112;11.552;2023-03-04T01:32:48;0.70;99.90
68813;DHT22;55808;48.112;11.552;2023-03-04T01:35:13;0.60;99.90
68813;DHT22;55808;48.112;11.552;2023-03-04T01:37:39;0.70;99.90
68813;DHT22;55808;48.112;11.552;2023-03-04T01:40:04;0.70;99.90
68813;DHT22;55808;48.112;11.552;2023-03-04T01:42:31;0.80;99.90
68813;DHT22;55808;48.112;11.552;2023-03-04T01:44:57;0.90;99.90
68813;DHT22;55808;48.112;11.552;2023-03-04T01:47:23;0.90;99.90
68813;DHT22;55808;48.112;11.552;2023-03-04T01:49:52;1.00;99.90
68813;DHT22;55808;48.112;11.552;2023-03-04T01:52:18;0.90;99.90
68813;DHT22;55808;48.112;11.552;2023-03-04T01:54:44;0.90;99.90
68813;DHT22;55808;48.112;11.552;2023-03-04T01:57:14;0.80;99.90
68813;DHT22;55808;48.112;11.552;2023-03-04T01:59:40;0.70;99.90
68813;DHT22;55808;48.112;11.552;2023-03-04T02:02:06;0.70;99.90
68813;DHT22;55808;48.112;11.552;2023-03-04T02:04:32;0.60;99.90
68813;DHT22;55808;48.112;11.552;2023-03-04T02:06:58;0.60;99.90
68813;DHT22;55808;48.112;11.552;2023-03-04T02:09:24;0.50;99.90
68813;DHT22;55808;48.112;11.552;2023-03-04T02:11:50;0.60;99.90
68813;DHT22;55808;48.112;11.552;2023-03-04T02:14:16;0.50;99.90
68813;DHT22;55808;48.112;11.552;2023-03-04T02:16:42;0.60;99.90
68813;DHT22;55808;48.112;11.552;2023-03-04T02:19:15;2.40;99.90
68813;DHT22;55808;48.112;11.552;2023-03-04T02:21:43;0.50;99.90
68813;DHT22;55808;48.112;11.552;2023-03-04T02:24:21;0.50;99.90
68813;DHT22;55808;48.112;11.552;2023-03-04T02:26:49;0.50;99.90
68813;DHT22;55808;48.112;11.552;2023-03-04T02:29:15;0.50;99.90
68813;DHT22;55808;48.112;11.552;2023-03-04T02:31:45;0.50;99.90
68813;DHT22;55808;48.112;11.552;2023-03-04T02:34:11;0.50;99.90
68813;DHT22;55808;48.112;11.552;2023-03-04T02:36:38;0.50;99.90
68813;DHT22;55808;48.112;11.552;2023-03-04T02:39:12;0.50;99.90
68813;DHT22;55808;48.112;11.552;2023-03-04T02:41:37;0.40;99.90
68813;DHT22;55808;48.112;11.552;2023-03-04T02:44:08;0.50;99.90
68813;DHT22;55808;48.112;11.552;2023-03-04T02:46:39;0.50;99.90
68813;DHT22;55808;48.112;11.552;2023-03-04T02:49:04;0.40;99.90
68813;DHT22;55808;48.112;11.552;2023-03-04T02:51:30;0.40;99.90
68813;DHT22;55808;48.112;11.552;2023-03-04T02:53:55;0.40;99.90
68813;DHT22;55808;48.112;11.552;2023-03-04T02:56:21;0.40;99.90
68813;DHT22;55808;48.112;11.552;2023-03-04T02:58:46;0.30;99.90
68813;DHT22;55808;48.112;11.552;2023-03-04T03:01:12;0.30;99.90
68813;DHT22;55808;48.112;11.552;2023-03-04T03:03:37;0.40;99.90
68813;DHT22;55808;48.112;11.552;2023-03-04T03:06:03;0.40;99.90
68813;DHT22;55808;48.112;11.552;2023-03-04T03:08:29;0.40;99.90
68813;DHT22;55808;48.112;11.552;2023-03-04T03:10:54;0.40;99.90
68813;DHT22;55808;48.112;11.552;2023-03-04T03:13:20;0.40;99.90
68813;DHT22;55808;48.112;11.552;2023-03-04T03:15:45;0.40;99.90
68813;DHT22;55808;48.112;11.552;2023-03-04T03:18:11;0.30;99.90
68813;DHT22;55808;48.112;11.552;2023-03-04T03:20:36;0.30;99.90
68813;DHT22;55808;48.112;11.552;2023-03-04T03:23:02;0.30;99.90
68813;DHT22;55808;48.112;11.552;2023-03-04T03:25:27;0.30;99.90
68813;DHT22;55808;48.112;11.552;2023-03-04T03:27:53;0.40;99.90
68813;DHT22;55808;48.112;11.552;2023-03-04T03:30:19;0.50;99.90
68813;DHT22;55808;48.112;11.552;2023-03-04T03:32:44;0.50;99.90
68813;DHT22;55808;48.112;11.552;2023-03-04T03:35:10;0.40;99.90
68813;DHT22;55808;48.112;11.552;2023-03-04T03:37:35;0.30;99.90
68813;DHT22;55808;48.112;11.552;2023-03-04T03:40:01;0.30;99.90
68813;DHT22;55808;48.112;11.552;2023-03-04T03:42:26;0.30;99.90
68813;DHT22;55808;48.112;11.552;2023-03-04T03:44:52;0.30;99.90
68813;DHT22;55808;48.112;11.552;2023-03-04T03:47:17;0.20;99.90
68813;DHT22;55808;48.112;11.552;2023-03-04T03:49:43;0.10;99.90
68813;DHT22;55808;48.112;11.552;2023-03-04T03:52:08;0.00;99.90
68813;DHT22;55808;48.112;11.552;2023-03-04T03:54:34;0.00;99.90
68813;DHT22;55808;48.112;11.552;2023-03-04T03:56:59;0.10;99.90
68813;DHT22;55808;48.112;11.552;2023-03-04T03:59:25;0.10;99.90
68813;DHT22;55808;48.112;11.552;2023-03-04T04:01:50;0.10;99.90
68813;DHT22;55808;48.112;11.552;2023-03-04T04:04:16;0.10;99.90
68813;DHT22;55808;48.112;11.552;2023-03-04T04:06:41;0.00;99.90
68813;DHT22;55808;48.112;11.552;2023-03-04T04:09:07;0.00;99.90
68813;DHT22;55808;48.112;11.552;2023-03-04T04:11:32;0.00;99.90
68813;DHT22;55808;48.112;11.552;2023-03-04T04:13:58;0.00;99.90
68813;DHT22;55808;48.112;11.552;2023-03-04T04:16:23;0.00;99.90
68813;DHT22;55808;48.112;11.552;2023-03-04T04:18:49;0.00;99.90
68813;DHT22;55808;48.112;11.552;2023-03-04T04:21:14;-0.10;99.90
68813;DHT22;55808;48.112;11.552;2023-03-04T04:23:40;-0.10;99.90
68813;DHT22;55808;48.112;11.552;2023-03-04T04:26:05;-0.10;99.90
68813;DHT22;55808;48.112;11.552;2023-03-04T04:28:31;-0.10;99.90
68813;DHT22;55808;48.112;11.552;2023-03-04T04:30:57;-0.10;99.90
68813;DHT22;55808;48.112;11.552;2023-03-04T04:33:22;-0.10;99.90
68813;DHT22;55808;48.112;11.552;2023-03-04T04:35:48;-0.10;99.90
68813;DHT22;55808;48.112;11.552;2023-03-04T04:38:13;-0.20;99.90
68813;DHT22;55808;48.112;11.552;2023-03-04T04:40:39;-0.20;99.90
68813;DHT22;55808;48.112;11.552;2023-03-04T04:43:04;-0.20;99.90
68813;DHT22;55808;48.112;11.552;2023-03-04T04:45:31;-0.30;99.90
68813;DHT22;55808;48.112;11.552;2023-03-04T04:47:56;-0.30;99.90
68813;DHT22;55808;48.112;11.552;2023-03-04T04:50:22;-0.20;99.90
68813;DHT22;55808;48.112;11.552;2023-03-04T04:52:48;-0.30;99.90
68813;DHT22;55808;48.112;11.552;2023-03-04T04:55:13;-0.30;99.90
68813;DHT22;55808;48.112;11.552;2023-03-04T04:57:39;-0.30;99.90
68813;DHT22;55808;48.112;11.552;2023-03-04T05:00:05;-0.40;99.90
68813;DHT22;55808;48.112;11.552;2023-03-04T05:02:31;-0.40;99.90
68813;DHT22;55808;48.112;11.552;2023-03-04T05:05:03;-0.40;99.90
68813;DHT22;55808;48.112;11.552;2023-03-04T05:07:29;-0.40;99.90
68813;DHT22;55808;48.112;11.552;2023-03-04T05:09:55;-0.40;99.90
68813;DHT22;55808;48.112;11.552;2023-03-04T05:12:20;-0.30;99.90
68813;DHT22;55808;48.112;11.552;2023-03-04T05:14:46;-0.30;99.90
68813;DHT22;55808;48.112;11.552;2023-03-04T05:17:11;-0.40;99.90
68813;DHT22;55808;48.112;11.552;2023-03-04T05:19:37;-0.30;99.90
68813;DHT22;55808;48.112;11.552;2023-03-04T05:22:02;-0.30;99.90
68813;DHT22;55808;48.112;11.552;2023-03-04T05:24:28;-0.30;99.90
68813;DHT22;55808;48.112;11.552;2023-03-04T05:26:53;-0.30;99.90
68813;DHT22;55808;48.112;11.552;2023-03-04T05:29:19;-0.30;99.90
68813;DHT22;55808;48.112;11.552;2023-03-04T05:31:44;-0.40;99.90
68813;DHT22;55808;48.112;11.552;2023-03-04T05:34:10;2.20;99.90
68813;DHT22;55808;48.112;11.552;2023-03-04T05:36:35;-0.40;99.90
68813;DHT22;55808;48.112;11.552;2023-03-04T05:39:01;-0.50;99.90
68813;DHT22;55808;48.112;11.552;2023-03-04T05:41:26;-0.50;99.90
68813;DHT22;55808;48.112;11.552;2023-03-04T05:43:52;-0.50;99.90
68813;DHT22;55808;48.112;11.552;2023-03-04T05:46:18;-0.40;99.90
68813;DHT22;55808;48.112;11.552;2023-03-04T05:48:50;-0.40;99.90
68813;DHT22;55808;48.112;11.552;2023-03-04T05:51:15;-0.40;99.90
68813;DHT22;55808;48.112;11.552;2023-03-04T05:53:41;-0.40;99.90
68813;DHT22;55808;48.112;11.552;2023-03-04T05:56:10;-0.40;99.90
68813;DHT22;55808;48.112;11.552;2023-03-04T05:58:35;-0.40;99.90
68813;DHT22;55808;48.112;11.552;2023-03-04T06:01:02;-0.50;99.90
68813;DHT22;55808;48.112;11.552;2023-03-04T06:03:27;-0.50;99.90
68813;DHT22;55808;48.112;11.552;2023-03-04T06:05:53;-0.50;99.90
68813;DHT22;55808;48.112;11.552;2023-03-04T06:08:19;-0.40;99.90
68813;DHT22;55808;48.112;11.552;2023-03-04T06:10:45;-0.40;99.90
68813;DHT22;55808;48.112;11.552;2023-03-04T06:13:10;-0.40;99.90
68813;DHT22;55808;48.112;11.552;2023-03-04T06:15:37;-0.40;99.90
68813;DHT22;55808;48.112;11.552;2023-03-04T06:18:02;-0.40;99.90
68813;DHT22;55808;48.112;11.552;2023-03-04T06:20:28;-0.40;99.90
68813;DHT22;55808;48.112;11.552;2023-03-04T06:22:54;-0.50;99.90
68813;DHT22;55808;48.112;11.552;2023-03-04T06:25:19;-0.40;99.90
68813;DHT22;55808;48.112;11.552;2023-03-04T06:27:45;-0.40;99.90
68813;DHT22;55808;48.112;11.552;2023-03-04T06:30:10;-0.40;99.90
68813;DHT22;55808;48.112;11.552;2023-03-04T06:32:36;-0.40;99.90
68813;DHT22;55808;48.112;11.552;2023-03-04T06:35:01;-0.30;99.90
68813;DHT22;55808;48.112;11.552;2023-03-04T06:37:27;-0.40;99.90
68813;DHT22;55808;48.112;11.552;2023-03-04T06:39:52;-0.30;99.90
68813;DHT22;55808;48.112;11.552;2023-03-04T06:42:19;-0.30;99.90
68813;DHT22;55808;48.112;11.552;2023-03-04T06:44:44;-0.20;99.90
68813;DHT22;55808;48.112;11.552;2023-03-04T06:47:10;-0.20;99.90
68813;DHT22;55808;48.112;11.552;2023-03-04T06:49:35;-0.20;99.90
68813;DHT22;55808;48.112;11.552;2023-03-04T06:52:01;-0.20;99.90
68813;DHT22;55808;48.112;11.552;2023-03-04T06:54:26;-0.10;99.90
68813;DHT22;55808;48.112;11.552;2023-03-04T06:56:52;-0.10;99.90
68813;DHT22;55808;48.112;11.552;2023-03-04T06:59:17;-0.10;99.90
68813;DHT22;55808;48.112;11.552;2023-03-04T07:01:43;-0.10;99.90
68813;DHT22;55808;48.112;11.552;2023-03-04T07:04:08;0.00;99.90
68813;DHT22;55808;48.112;11.552;2023-03-04T07:06:34;0.00;99.90
68813;DHT22;55808;48.112;11.552;2023-03-04T07:08:59;0.10;99.90
68813;DHT22;55808;48.112;11.552;2023-03-04T07:11:25;0.10;99.90
68813;DHT22;55808;48.112;11.552;2023-03-04T07:13:51;0.20;99.90
68813;DHT22;55808;48.112;11.552;2023-03-04T07:16:18;0.20;99.90
68813;DHT22;55808;48.112;11.552;2023-03-04T07:18:44;0.30;99.90
68813;DHT22;55808;48.112;11.552;2023-03-04T07:21:09;0.30;99.90
68813;DHT22;55808;48.112;11.552;2023-03-04T07:23:35;0.40;99.90
68813;DHT22;55808;48.112;11.552;2023-03-04T07:26:01;0.40;99.90
68813;DHT22;55808;48.112;11.552;2023-03-04T07:28:26;0.70;99.90
68813;DHT22;55808;48.112;11.552;2023-03-04T07:30:52;0.80;99.90
68813;DHT22;55808;48.112;11.552;2023-03-04T07:33:17;0.90;99.90
68813;DHT22;55808;48.112;11.552;2023-03-04T07:35:43;1.00;99.90
68813;DHT22;55808;48.112;11.552;2023-03-04T07:38:08;1.00;99.90
68813;DHT22;55808;48.112;11.552;2023-03-04T07:40:34;0.90;99.90
68813;DHT22;55808;48.112;11.552;2023-03-04T07:42:59;0.80;99.90
68813;DHT22;55808;48.112;11.552;2023-03-04T07:45:26;0.90;99.90
68813;DHT22;55808;48.112;11.552;2023-03-04T07:47:51;1.30;99.90
68813;DHT22;55808;48.112;11.552;2023-03-04T07:50:17;1.10;99.90
68813;DHT22;55808;48.112;11.552;2023-03-04T07:52:44;1.10;99.90
68813;DHT22;55808;48.112;11.552;2023-03-04T07:55:10;1.20;99.90
68813;DHT22;55808;48.112;11.552;2023-03-04T07:57:39;1.20;99.90
68813;DHT22;55808;48.112;11.552;2023-03-04T08:00:07;1.30;99.90
68813;DHT22;55808;48.112;11.552;2023-03-04T08:02:32;1.30;99.90
68813;DHT22;55808;48.112;11.552;2023-03-04T08:04:58;1.40;99.90
68813;DHT22;55808;48.112;11.552;2023-03-04T08:07:23;1.50;99.90
68813;DHT22;55808;48.112;11.552;2023-03-04T08:09:49;1.50;99.90
68813;DHT22;55808;48.112;11.552;2023-03-04T08:12:15;1.50;99.90
68813;DHT22;55808;48.112;11.552;2023-03-04T08:14:40;1.60;99.90
68813;DHT22;55808;48.112;11.552;2023-03-04T08:17:06;1.60;99.90
68813;DHT22;55808;48.112;11.552;2023-03-04T08:19:31;1.70;99.90
68813;DHT22;55808;48.112;11.552;2023-03-04T08:21:57;1.70;99.90
68813;DHT22;55808;48.112;11.552;2023-03-04T08:24:22;1.70;99.90
68813;DHT22;55808;48.112;11.552;2023-03-04T08:26:48;1.60;99.90
68813;DHT22;55808;48.112;11.552;2023-03-04T08:29:16;1.60;99.90
68813;DHT22;55808;48.112;11.552;2023-03-04T08:31:42;1.70;99.90
68813;DHT22;55808;48.112;11.552;2023-03-04T08:34:10;1.70;99.90
68813;DHT22;55808;48.112;11.552;2023-03-04T08:36:37;1.60;99.90
68813;DHT22;55808;48.112;11.552;2023-03-04T08:39:03;1.70;99.90
68813;DHT22;55808;48.112;11.552;2023-03-04T08:41:29;1.80;99.90
68813;DHT22;55808;48.112;11.552;2023-03-04T08:43:54;1.80;99.90
68813;DHT22;55808;48.112;11.552;2023-03-04T08:46:20;1.70;99.90
68813;DHT22;55808;48.112;11.552;2023-03-04T08:48:45;1.80;99.90
68813;DHT22;55808;48.112;11.552;2023-03-04T08:51:11;1.90;99.90
68813;DHT22;55808;48.112;11.552;2023-03-04T08:53:37;1.90;99.90
68813;DHT22;55808;48.112;11.552;2023-03-04T08:56:03;1.90;99.90
68813;DHT22;55808;48.112;11.552;2023-03-04T08:58:29;1.90;99.90
68813;DHT22;55808;48.112;11.552;2023-03-04T09:00:57;1.90;99.90
68813;DHT22;55808;48.112;11.552;2023-03-04T09:03:23;2.00;99.90
68813;DHT22;55808;48.112;11.552;2023-03-04T09:05:49;2.10;99.90
68813;DHT22;55808;48.112;11.552;2023-03-04T09:08:15;2.10;99.90
68813;DHT22;55808;48.112;11.552;2023-03-04T09:10:40;2.10;99.90
68813;DHT22;55808;48.112;11.552;2023-03-04T09:13:06;2.30;99.90
68813;DHT22;55808;48.112;11.552;2023-03-04T09:15:32;2.30;99.90
68813;DHT22;55808;48.112;11.552;2023-03-04T09:18:04;4.30;99.90
68813;DHT22;55808;48.112;11.552;2023-03-04T09:20:30;2.40;99.90
68813;DHT22;55808;48.112;11.552;2023-03-04T09:22:55;2.40;99.90
68813;DHT22;55808;48.112;11.552;2023-03-04T09:25:21;2.40;99.90
68813;DHT22;55808;48.112;11.552;2023-03-04T09:27:46;2.60;99.90
68813;DHT22;55808;48.112;11.552;2023-03-04T09:30:12;2.60;99.50
68813;DHT22;55808;48.112;11.552;2023-03-04T09:32:38;2.60;99.80
68813;DHT22;55808;48.112;11.552;2023-03-04T09:35:04;2.60;99.50
68813;DHT22;55808;48.112;11.552;2023-03-04T09:37:29;2.80;99.40
68813;DHT22;55808;48.112;11.552;2023-03-04T09:39:55;2.80;98.60
68813;DHT22;55808;48.112;11.552;2023-03-04T09:42:24;2.90;97.40
68813;DHT22;55808;48.112;11.552;2023-03-04T09:44:51;2.90;96.80
68813;DHT22;55808;48.112;11.552;2023-03-04T09:47:17;2.80;96.40
68813;DHT22;55808;48.112;11.552;2023-03-04T09:49:45;3.00;95.50
68813;DHT22;55808;48.112;11.552;2023-03-04T09:57:39;3.10;95.40
68813;DHT22;55808;48.112;11.552;2023-03-04T10:05:18;3.30;95.10
68813;DHT22;55808;48.112;11.552;2023-03-04T10:07:45;3.30;94.40
68813;DHT22;55808;48.112;11.552;2023-03-04T10:10:12;3.30;94.80
68813;DHT22;55808;48.112;11.552;2023-03-04T10:12:39;3.40;94.60
68813;DHT22;55808;48.112;11.552;2023-03-04T10:15:16;3.40;94.50
68813;DHT22;55808;48.112;11.552;2023-03-04T10:17:45;3.50;94.30
68813;DHT22;55808;48.112;11.552;2023-03-04T10:20:20;3.40;94.20
68813;DHT22;55808;48.112;11.552;2023-03-04T10:22:50;3.60;94.40
68813;DHT22;55808;48.112;11.552;2023-03-04T10:25:17;3.70;93.70
68813;DHT22;55808;48.112;11.552;2023-03-04T10:27:48;3.80;93.40
68813;DHT22;55808;48.112;11.552;2023-03-04T10:30:22;3.90;92.90
68813;DHT22;55808;48.112;11.552;2023-03-04T10:32:51;4.00;93.20
68813;DHT22;55808;48.112;11.552;2023-03-04T10:35:17;4.10;92.10
68813;DHT22;55808;48.112;11.552;2023-03-04T10:37:47;4.10;92.50
68813;DHT22;55808;48.112;11.552;2023-03-04T10:40:18;4.10;92.50
68813;DHT22;55808;48.112;11.552;2023-03-04T10:42:47;4.10;92.20
68813;DHT22;55808;48.112;11.552;2023-03-04T10:45:19;4.30;91.90
68813;DHT22;55808;48.112;11.552;2023-03-04T10:47:54;4.50;91.30
68813;DHT22;55808;48.112;11.552;2023-03-04T10:50:24;4.40;91.30
68813;DHT22;55808;48.112;11.552;2023-03-04T10:52:50;4.50;91.40
68813;DHT22;55808;48.112;11.552;2023-03-04T10:58:01;4.80;91.70
68813;DHT22;55808;48.112;11.552;2023-03-04T11:00:31;4.90;91.50
68813;DHT22;55808;48.112;11.552;2023-03-04T11:05:42;5.50;90.00
68813;DHT22;55808;48.112;11.552;2023-03-04T11:08:14;5.50;89.10
68813;DHT22;55808;48.112;11.552;2023-03-04T11:10:40;5.60;87.70
68813;DHT22;55808;48.112;11.552;2023-03-04T11:18:13;7.40;78.30
68813;DHT22;55808;48.112;11.552;2023-03-04T11:20:44;8.00;73.40
68813;DHT22;55808;48.112;11.552;2023-03-04T11:23:16;9.10;71.60
68813;DHT22;55808;48.112;11.552;2023-03-04T11:25:44;10.60;66.00
68813;DHT22;55808;48.112;11.552;2023-03-04T11:28:13;10.20;63.20
68813;DHT22;55808;48.112;11.552;2023-03-04T11:30:47;10.20;61.80
68813;DHT22;55808;48.112;11.552;2023-03-04T11:36:14;10.40;60.90
68813;DHT22;55808;48.112;11.552;2023-03-04T11:38:48;8.90;66.40
68813;DHT22;55808;48.112;11.552;2023-03-04T11:41:15;9.80;64.40
68813;DHT22;55808;48.112;11.552;2023-03-04T11:43:44;9.20;66.60
68813;DHT22;55808;48.112;11.552;2023-03-04T11:53:46;9.40;65.00
68813;DHT22;55808;48.112;11.552;2023-03-04T11:56:25;8.60;70.60
68813;DHT22;55808;48.112;11.552;2023-03-04T12:01:38;7.40;72.30
68813;DHT22;55808;48.112;11.552;2023-03-04T12:09:46;10.20;65.70
68813;DHT22;55808;48.112;11.552;2023-03-04T12:12:24;10.70;66.70
68813;DHT22;55808;48.112;11.552;2023-03-04T12:17:40;9.30;68.30
68813;DHT22;55808;48.112;11.552;2023-03-04T12:22:49;10.60;64.00
68813;DHT22;55808;48.112;11.552;2023-03-04T12:27:43;11.30;61.80
68813;DHT22;55808;48.112;11.552;2023-03-04T12:32:46;10.80;60.70
68813;DHT22;55808;48.112;11.552;2023-03-04T12:35:20;10.50;62.40
68813;DHT22;55808;48.112;11.552;2023-03-04T12:40:35;10.00;64.60
68813;DHT22;55808;48.112;11.552;2023-03-04T12:48:24;11.70;58.70
68813;DHT22;55808;48.112;11.552;2023-03-04T12:53:32;11.40;57.90
68813;DHT22;55808;48.112;11.552;2023-03-04T12:56:02;9.90;59.60
68813;DHT22;55808;48.112;11.552;2023-03-04T12:58:29;10.30;59.70
68813;DHT22;55808;48.112;11.552;2023-03-04T13:05:59;12.00;59.40
68813;DHT22;55808;48.112;11.552;2023-03-04T13:18:59;11.90;60.00
68813;DHT22;55808;48.112;11.552;2023-03-04T13:21:27;11.70;60.30
68813;DHT22;55808;48.112;11.552;2023-03-04T13:23:53;11.10;61.40
68813;DHT22;55808;48.112;11.552;2023-03-04T13:26:20;11.80;61.40
68813;DHT22;55808;48.112;11.552;2023-03-04T13:28:50;11.50;62.00
68813;DHT22;55808;48.112;11.552;2023-03-04T13:31:20;12.00;60.90
68813;DHT22;55808;48.112;11.552;2023-03-04T13:33:50;11.90;60.60
68813;DHT22;55808;48.112;11.552;2023-03-04T13:36:28;11.60;61.50
68813;DHT22;55808;48.112;11.552;2023-03-04T13:41:54;10.40;62.20
68813;DHT22;55808;48.112;11.552;2023-03-04T13:44:31;11.30;61.20
68813;DHT22;55808;48.112;11.552;2023-03-04T13:46:57;11.40;61.00
68813;DHT22;55808;48.112;11.552;2023-03-04T13:49:31;11.30;61.00
68813;DHT22;55808;48.112;11.552;2023-03-04T13:51:56;11.00;62.40
68813;DHT22;55808;48.112;11.552;2023-03-04T13:54:32;10.20;62.20
68813;DHT22;55808;48.112;11.552;2023-03-04T14:01:55;10.60;63.30
68813;DHT22;55808;48.112;11.552;2023-03-04T14:04:23;10.10;63.50
68813;DHT22;55808;48.112;11.552;2023-03-04T14:06:51;10.00;64.70
68813;DHT22;55808;48.112;11.552;2023-03-04T14:09:24;9.80;64.50
68813;DHT22;55808;48.112;11.552;2023-03-04T14:11:50;10.00;63.50
68813;DHT22;55808;48.112;11.552;2023-03-04T14:14:20;9.80;65.80
68813;DHT22;55808;48.112;11.552;2023-03-04T14:17:08;9.20;66.00
68813;DHT22;55808;48.112;11.552;2023-03-04T14:19:35;9.20;66.70
68813;DHT22;55808;48.112;11.552;2023-03-04T14:22:25;9.10;67.20
68813;DHT22;55808;48.112;11.552;2023-03-04T14:27:21;9.00;66.90
68813;DHT22;55808;48.112;11.552;2023-03-04T14:29:53;8.50;67.90
68813;DHT22;55808;48.112;11.552;2023-03-04T14:32:19;7.90;70.20
68813;DHT22;55808;48.112;11.552;2023-03-04T14:34:44;8.20;70.80
68813;DHT22;55808;48.112;11.552;2023-03-04T14:37:18;8.30;69.90
68813;DHT22;55808;48.112;11.552;2023-03-04T14:39:44;7.90;69.50
68813;DHT22;55808;48.112;11.552;2023-03-04T14:42:11;8.10;72.40
68813;DHT22;55808;48.112;11.552;2023-03-04T14:44:42;7.70;70.70
68813;DHT22;55808;48.112;11.552;2023-03-04T14:49:36;7.50;70.90
68813;DHT22;55808;48.112;11.552;2023-03-04T14:52:02;7.30;72.10
68813;DHT22;55808;48.112;11.552;2023-03-04T14:54:29;7.80;71.90
68813;DHT22;55808;48.112;11.552;2023-03-04T14:56:54;7.80;70.50
68813;DHT22;55808;48.112;11.552;2023-03-04T14:59:26;7.50;70.90
68813;DHT22;55808;48.112;11.552;2023-03-04T15:01:52;6.00;72.70
68813;DHT22;55808;48.112;11.552;2023-03-04T15:04:18;6.50;74.50
68813;DHT22;55808;48.112;11.552;2023-03-04T15:06:51;6.60;74.30
68813;DHT22;55808;48.112;11.552;2023-03-04T15:09:18;6.80;72.90
68813;DHT22;55808;48.112;11.552;2023-03-04T15:11:45;6.70;71.60
68813;DHT22;55808;48.112;11.552;2023-03-04T15:16:57;6.40;72.40
68813;DHT22;55808;48.112;11.552;2023-03-04T15:19:23;6.10;73.50
68813;DHT22;55808;48.112;11.552;2023-03-04T15:21:49;5.90;73.50
68813;DHT22;55808;48.112;11.552;2023-03-04T15:24:14;6.00;75.00
68813;DHT22;55808;48.112;11.552;2023-03-04T15:26:41;6.20;73.90
68813;DHT22;55808;48.112;11.552;2023-03-04T15:29:14;6.40;73.70
68813;DHT22;55808;48.112;11.552;2023-03-04T15:31:40;5.90;73.80
68813;DHT22;55808;48.112;11.552;2023-03-04T15:34:11;5.50;74.60
68813;DHT22;55808;48.112;11.552;2023-03-04T15:36:37;5.50;75.30
68813;DHT22;55808;48.112;11.552;2023-03-04T15:39:02;5.80;74.50
68813;DHT22;55808;48.112;11.552;2023-03-04T15:41:28;5.80;74.80
68813;DHT22;55808;48.112;11.552;2023-03-04T15:43:53;5.30;74.00
68813;DHT22;55808;48.112;11.552;2023-03-04T15:46:19;5.30;75.70
68813;DHT22;55808;48.112;11.552;2023-03-04T15:48:45;5.70;77.60
68813;DHT22;55808;48.112;11.552;2023-03-04T15:51:14;5.10;76.20
68813;DHT22;55808;48.112;11.552;2023-03-04T15:53:44;4.80;76.70
68813;DHT22;55808;48.112;11.552;2023-03-04T15:56:14;4.40;77.60
68813;DHT22;55808;48.112;11.552;2023-03-04T15:58:41;4.20;77.90
68813;DHT22;55808;48.112;11.552;2023-03-04T16:01:08;4.20;79.10
68813;DHT22;55808;48.112;11.552;2023-03-04T16:03:33;4.20;78.10
68813;DHT22;55808;48.112;11.552;2023-03-04T16:05:59;3.80;78.20
68813;DHT22;55808;48.112;11.552;2023-03-04T16:08:25;3.60;80.10
68813;DHT22;55808;48.112;11.552;2023-03-04T16:10:51;3.80;80.20
68813;DHT22;55808;48.112;11.552;2023-03-04T16:13:18;3.50;80.70
68813;DHT22;55808;48.112;11.552;2023-03-04T16:15:44;3.60;80.80
68813;DHT22;55808;48.112;11.552;2023-03-04T16:18:10;3.50;80.40
68813;DHT22;55808;48.112;11.552;2023-03-04T16:20:36;3.50;80.30
68813;DHT22;55808;48.112;11.552;2023-03-04T16:23:02;3.30;80.60
68813;DHT22;55808;48.112;11.552;2023-03-04T16:25:28;3.10;81.00
68813;DHT22;55808;48.112;11.552;2023-03-04T16:27:55;3.00;81.50
68813;DHT22;55808;48.112;11.552;2023-03-04T16:30:24;3.00;81.80
68813;DHT22;55808;48.112;11.552;2023-03-04T16:32:50;2.70;82.80
68813;DHT22;55808;48.112;11.552;2023-03-04T16:35:17;2.90;83.10
68813;DHT22;55808;48.112;11.552;2023-03-04T16:37:43;2.40;83.20
68813;DHT22;55808;48.112;11.552;2023-03-04T16:40:15;2.40;83.40
68813;DHT22;55808;48.112;11.552;2023-03-04T16:42:41;2.40;83.40
68813;DHT22;55808;48.112;11.552;2023-03-04T16:45:17;2.30;84.20
68813;DHT22;55808;48.112;11.552;2023-03-04T16:47:43;2.30;84.10
68813;DHT22;55808;48.112;11.552;2023-03-04T16:50:19;2.30;83.80
68813;DHT22;55808;48.112;11.552;2023-03-04T16:52:45;2.00;84.00
68813;DHT22;55808;48.112;11.552;2023-03-04T16:55:14;2.00;84.10
68813;DHT22;55808;48.112;11.552;2023-03-04T16:57:40;2.00;84.90